Time;durP1;ratioP1;P1;durP2;ratioP2;P2;SDS_P1;SDS_P2;PMS_P1;PMS_P2;Temp;Humidity;BMP_temperature;BMP_pressure;BME280_temperature;BME280_humidity;BME280_pressure;Samples;Min_cycle;Max_cycle;Signal;HPM_P1;HPM_P2
2021/03/22 00:01:16;;;;;;;1999.90;999.90;;;;;;;;;;5060101;28;20725;-29
2021/03/22 00:04:03;;;;;;;1999.90;999.90;;;;;;;;;;5060155;28;20197;-29
2021/03/22 00:06:49;;;;;;;1999.90;999.90;;;;;;;;;;5059498;28;20280;-29
2021/03/22 00:09:34;;;;;;;1999.90;999.90;;;;;;;;;;5060625;28;20231;-30
2021/03/22 00:12:24;;;;;;;1999.90;999.90;;;;;;;;;;5072867;28;20208;-29
2021/03/22 00:15:11;;;;;;;1999.90;999.90;;;;;;;;;;5074965;28;20205;-29
2021/03/22 00:17:57;;;;;;;1999.90;999.90;;;;;;;;;;5071694;28;20189;-29
2021/03/22 00:20:47;;;;;;;1999.90;999.90;;;;;;;;;;5074599;28;20254;-32
2021/03/22 00:23:32;;;;;;;1999.90;999.90;;;;;;;;;;5073668;28;20224;-29
2021/03/22 00:26:18;;;;;;;1999.90;999.90;;;;;;;;;;5072768;28;20252;-29
2021/03/22 00:29:05;;;;;;;1999.90;999.90;;;;;;;;;;5070907;28;20267;-29
2021/03/22 00:31:51;;;;;;;1999.90;999.90;;;;;;;;;;5071002;28;20203;-29
2021/03/22 00:34:37;;;;;;;1999.90;999.90;;;;;;;;;;5068794;28;20257;-29
2021/03/22 00:37:23;;;;;;;1999.90;999.90;;;;;;;;;;5060123;28;20259;-29
2021/03/22 00:40:10;;;;;;;1999.90;999.90;;;;;;;;;;5058500;28;20200;-29
2021/03/22 00:42:55;;;;;;;1999.90;999.90;;;;;;;;;;5058091;28;20200;-35
2021/03/22 00:45:42;;;;;;;1999.90;999.90;;;;;;;;;;5056955;28;20192;-35
2021/03/22 00:48:29;;;;;;;1999.90;999.90;;;;;;;;;;5056420;28;20232;-35
2021/03/22 00:51:15;;;;;;;1999.90;999.90;;;;;;;;;;5056993;28;20303;-32
2021/03/22 00:54:01;;;;;;;1999.90;999.90;;;;;;;;;;5056512;28;20223;-34
2021/03/22 00:56:48;;;;;;;1999.90;999.90;;;;;;;;;;5056941;28;20199;-33
2021/03/22 00:59:37;;;;;;;1999.90;999.90;;;;;;;;;;5056832;28;20587;-35
2021/03/22 01:02:24;;;;;;;1999.90;999.90;;;;;;;;;;5056395;28;20201;-33
2021/03/22 01:05:11;;;;;;;1999.90;999.90;;;;;;;;;;5056664;28;20697;-33
2021/03/22 01:07:56;;;;;;;1999.90;999.90;;;;;;;;;;5056913;28;20216;-34
2021/03/22 01:10:46;;;;;;;1999.90;999.90;;;;;;;;;;5056304;28;20311;-32
2021/03/22 01:13:33;;;;;;;1999.90;999.90;;;;;;;;;;5056378;28;20266;-34
2021/03/22 01:16:36;;;;;;;1999.90;999.90;;;;;;;;;;5056698;28;20203;-36
2021/03/22 01:19:25;;;;;;;1999.90;999.90;;;;;;;;;;5056792;28;20192;-33
2021/03/22 01:22:12;;;;;;;1999.90;999.90;;;;;;;;;;5056611;28;20549;-32
2021/03/22 01:24:58;;;;;;;1999.90;999.90;;;;;;;;;;5056509;28;20200;-33
2021/03/22 01:27:44;;;;;;;1999.90;999.90;;;;;;;;;;5056299;28;20200;-32
2021/03/22 01:30:36;;;;;;;1999.90;999.90;;;;;;;;;;5056363;28;20549;-33
2021/03/22 01:33:25;;;;;;;1999.90;999.90;;;;;;;;;;5056181;28;20215;-35
2021/03/22 01:36:13;;;;;;;1999.90;999.90;;;;;;;;;;5056519;28;20463;-36
2021/03/22 01:39:01;;;;;;;1999.90;999.90;;;;;;;;;;5056007;28;20201;-31
2021/03/22 01:41:57;;;;;;;1999.90;999.90;;;;;;;;;;5056688;28;20197;-33
2021/03/22 01:44:44;;;;;;;1999.90;999.90;;;;;;;;;;5056659;28;20217;-34
2021/03/22 01:47:31;;;;;;;1999.90;999.90;;;;;;;;;;5055413;28;20358;-34
2021/03/22 01:50:19;;;;;;;1999.90;999.90;;;;;;;;;;5055893;28;20267;-36
2021/03/22 01:53:06;;;;;;;1999.90;999.90;;;;;;;;;;5056065;28;20200;-31
2021/03/22 01:56:07;;;;;;;1999.90;999.90;;;;;;;;;;5055990;28;20355;-32
2021/03/22 01:58:53;;;;;;;1999.90;999.90;;;;;;;;;;5056135;28;20196;-35
2021/03/22 02:01:39;;;;;;;1999.90;999.90;;;;;;;;;;5060710;28;20705;-33
2021/03/22 02:04:27;;;;;;;1999.90;999.90;;;;;;;;;;5059673;28;20559;-34
2021/03/22 02:07:12;;;;;;;1999.90;999.90;;;;;;;;;;5059738;28;20196;-36
2021/03/22 02:09:59;;;;;;;1999.90;999.90;;;;;;;;;;5059468;28;20231;-34
2021/03/22 02:12:47;;;;;;;1999.90;999.90;;;;;;;;;;5059739;28;20398;-32
2021/03/22 02:15:33;;;;;;;1999.90;999.90;;;;;;;;;;5059624;28;20510;-32
2021/03/22 02:18:21;;;;;;;1999.90;999.90;;;;;;;;;;5059120;28;20501;-34
2021/03/22 02:21:25;;;;;;;1999.90;999.90;;;;;;;;;;5059036;28;20478;-32
2021/03/22 02:24:29;;;;;;;1999.90;999.90;;;;;;;;;;5059418;28;20244;-33
2021/03/22 02:27:25;;;;;;;1999.90;999.90;;;;;;;;;;5059554;28;20195;-35
2021/03/22 02:30:30;;;;;;;1999.90;999.90;;;;;;;;;;5059058;28;20228;-35
2021/03/22 02:33:31;;;;;;;1999.90;999.90;;;;;;;;;;5058715;28;20196;-34
2021/03/22 02:36:20;;;;;;;1999.90;999.90;;;;;;;;;;5058914;28;20314;-35
2021/03/22 02:39:06;;;;;;;1999.90;999.90;;;;;;;;;;5059415;28;20216;-36
2021/03/22 02:41:54;;;;;;;1999.90;999.90;;;;;;;;;;5058232;28;20200;-32
2021/03/22 02:44:40;;;;;;;1999.90;999.90;;;;;;;;;;5058646;28;20205;-35
2021/03/22 02:47:42;;;;;;;1999.90;999.90;;;;;;;;;;5058409;28;20530;-33
2021/03/22 02:50:30;;;;;;;1999.90;999.90;;;;;;;;;;5058297;28;20294;-34
2021/03/22 02:53:25;;;;;;;1999.90;999.90;;;;;;;;;;5059439;28;20200;-38
2021/03/22 02:56:20;;;;;;;1999.90;999.90;;;;;;;;;;5058899;28;20244;-33
2021/03/22 02:59:10;;;;;;;1999.90;999.90;;;;;;;;;;5058401;28;20204;-35
2021/03/22 03:01:59;;;;;;;1999.90;999.90;;;;;;;;;;5058766;28;20282;-32
2021/03/22 03:04:45;;;;;;;1999.90;999.90;;;;;;;;;;5058550;28;20204;-33
2021/03/22 03:07:31;;;;;;;1999.90;999.90;;;;;;;;;;5058988;28;20199;-32
2021/03/22 03:10:19;;;;;;;1999.90;999.90;;;;;;;;;;5058129;28;20504;-32
2021/03/22 03:13:05;;;;;;;1999.90;999.90;;;;;;;;;;5058548;28;20571;-32
2021/03/22 03:15:53;;;;;;;1999.90;999.90;;;;;;;;;;5058990;28;20276;-34
2021/03/22 03:18:40;;;;;;;1999.90;999.90;;;;;;;;;;5058184;28;20209;-32
2021/03/22 03:21:25;;;;;;;1999.90;999.90;;;;;;;;;;5058313;28;20493;-33
2021/03/22 03:24:11;;;;;;;1999.90;999.90;;;;;;;;;;5058445;28;20327;-32
2021/03/22 03:26:58;;;;;;;1999.90;999.90;;;;;;;;;;5057790;28;20204;-34
2021/03/22 03:29:44;;;;;;;1999.90;999.90;;;;;;;;;;5058981;28;20629;-32
2021/03/22 03:32:29;;;;;;;1999.90;999.90;;;;;;;;;;5057947;28;20257;-33
2021/03/22 03:35:16;;;;;;;1999.90;999.90;;;;;;;;;;5057878;28;20196;-34
2021/03/22 03:38:03;;;;;;;1999.90;999.90;;;;;;;;;;5057862;28;20618;-34
2021/03/22 03:40:49;;;;;;;1999.90;999.90;;;;;;;;;;5058077;28;20199;-32
2021/03/22 03:43:36;;;;;;;1999.90;999.90;;;;;;;;;;5057902;28;20203;-32
2021/03/22 03:46:21;;;;;;;1999.90;999.90;;;;;;;;;;5057924;28;20212;-34
2021/03/22 03:49:07;;;;;;;1999.90;999.90;;;;;;;;;;5057797;28;20247;-38
2021/03/22 03:51:53;;;;;;;1999.90;999.90;;;;;;;;;;5057660;28;20199;-32
2021/03/22 03:54:39;;;;;;;1999.90;999.90;;;;;;;;;;5057630;28;20299;-32
2021/03/22 03:57:25;;;;;;;1999.90;999.90;;;;;;;;;;5057572;28;20204;-34
2021/03/22 04:00:14;;;;;;;1999.90;999.90;;;;;;;;;;5057255;28;20208;-31
2021/03/22 04:03:14;;;;;;;1999.90;999.90;;;;;;;;;;5058281;28;20199;-33
2021/03/22 04:06:02;;;;;;;1999.90;999.90;;;;;;;;;;5058661;28;20196;-33
2021/03/22 04:08:49;;;;;;;1999.90;999.90;;;;;;;;;;5057276;28;20298;-37
2021/03/22 04:11:36;;;;;;;1999.90;999.90;;;;;;;;;;5057128;28;20321;-34
2021/03/22 04:14:23;;;;;;;1999.90;999.90;;;;;;;;;;5057133;28;20460;-33
2021/03/22 04:17:12;;;;;;;1999.90;999.90;;;;;;;;;;5057378;28;20196;-36
2021/03/22 04:19:58;;;;;;;1999.90;999.90;;;;;;;;;;5057188;28;20197;-34
2021/03/22 04:22:44;;;;;;;1999.90;999.90;;;;;;;;;;5056583;28;20251;-35
2021/03/22 04:25:30;;;;;;;1999.90;999.90;;;;;;;;;;5057261;28;20199;-35
2021/03/22 04:28:16;;;;;;;1999.90;999.90;;;;;;;;;;5057376;28;20208;-36
2021/03/22 04:31:02;;;;;;;1999.90;999.90;;;;;;;;;;5057062;28;20224;-38
2021/03/22 04:33:49;;;;;;;1999.90;999.90;;;;;;;;;;5057046;28;20530;-33
2021/03/22 04:36:35;;;;;;;1999.90;999.90;;;;;;;;;;5057016;28;20208;-34
2021/03/22 04:39:21;;;;;;;1999.90;999.90;;;;;;;;;;5056737;28;20610;-36
2021/03/22 04:42:10;;;;;;;1999.90;999.90;;;;;;;;;;5057989;28;20197;-37
2021/03/22 04:44:56;;;;;;;1999.90;999.90;;;;;;;;;;5056806;28;20208;-35
2021/03/22 04:47:43;;;;;;;1999.90;999.90;;;;;;;;;;5056729;28;20312;-33
2021/03/22 04:50:30;;;;;;;1999.90;999.90;;;;;;;;;;5056528;28;20343;-36
2021/03/22 04:53:16;;;;;;;1999.90;999.90;;;;;;;;;;5056623;28;20355;-32
2021/03/22 04:56:07;;;;;;;1999.90;999.90;;;;;;;;;;5056798;28;20204;-36
2021/03/22 04:58:54;;;;;;;1999.90;999.90;;;;;;;;;;5056550;28;20200;-34
2021/03/22 05:01:40;;;;;;;1999.90;999.90;;;;;;;;;;5056871;28;20212;-33
2021/03/22 05:04:27;;;;;;;1999.90;999.90;;;;;;;;;;5056402;28;20203;-37
2021/03/22 05:07:14;;;;;;;1999.90;999.90;;;;;;;;;;5056724;28;20480;-36
2021/03/22 05:10:00;;;;;;;1999.90;999.90;;;;;;;;;;5056201;28;20223;-37
2021/03/22 05:12:45;;;;;;;1999.90;999.90;;;;;;;;;;5056425;28;20278;-37
2021/03/22 05:15:34;;;;;;;1999.90;999.90;;;;;;;;;;5056025;28;20196;-33
2021/03/22 05:18:20;;;;;;;1999.90;999.90;;;;;;;;;;5056829;28;20212;-34
2021/03/22 05:21:08;;;;;;;1999.90;999.90;;;;;;;;;;5056439;28;20271;-34
2021/03/22 05:23:54;;;;;;;1999.90;999.90;;;;;;;;;;5056472;28;20201;-35
2021/03/22 05:26:40;;;;;;;1999.90;999.90;;;;;;;;;;5056281;28;20216;-34
2021/03/22 05:29:27;;;;;;;1999.90;999.90;;;;;;;;;;5056615;28;20290;-35
2021/03/22 05:32:29;;;;;;;1999.90;999.90;;;;;;;;;;5056519;28;20192;-38
2021/03/22 05:35:20;;;;;;;1999.90;999.90;;;;;;;;;;5058392;28;20339;-35
2021/03/22 05:38:16;;;;;;;1999.90;999.90;;;;;;;;;;5059865;28;20653;-37
2021/03/22 05:41:07;;;;;;;1999.90;999.90;;;;;;;;;;5060180;28;20204;-37
2021/03/22 05:43:55;;;;;;;1999.90;999.90;;;;;;;;;;5059845;28;20196;-39
2021/03/22 05:46:46;;;;;;;1999.90;999.90;;;;;;;;;;5060939;28;20216;-34
2021/03/22 05:49:42;;;;;;;1999.90;999.90;;;;;;;;;;5060462;28;20535;-35
2021/03/22 05:52:36;;;;;;;1999.90;999.90;;;;;;;;;;5059865;28;20220;-37
2021/03/22 05:55:29;;;;;;;1999.90;999.90;;;;;;;;;;5060165;28;20339;-39
2021/03/22 05:58:32;;;;;;;1999.90;999.90;;;;;;;;;;5060021;28;20302;-33
2021/03/22 06:01:30;;;;;;;1999.90;999.90;;;;;;;;;;5058325;28;20476;-33
2021/03/22 06:04:20;;;;;;;1999.90;999.90;;;;;;;;;;5060050;28;20205;-36
2021/03/22 06:07:06;;;;;;;1999.90;999.90;;;;;;;;;;5059859;28;20294;-33
2021/03/22 06:09:53;;;;;;;1999.90;999.90;;;;;;;;;;5059863;28;20196;-32
2021/03/22 06:12:42;;;;;;;1999.90;999.90;;;;;;;;;;5060219;28;20575;-32
2021/03/22 06:15:32;;;;;;;1999.90;999.90;;;;;;;;;;5060366;28;20199;-36
2021/03/22 06:18:23;;;;;;;1999.90;999.90;;;;;;;;;;5059664;28;20216;-33
2021/03/22 06:21:11;;;;;;;1999.90;999.90;;;;;;;;;;5059435;28;20213;-34
2021/03/22 06:23:59;;;;;;;1999.90;999.90;;;;;;;;;;5059521;28;20220;-35
2021/03/22 06:26:46;;;;;;;1999.90;999.90;;;;;;;;;;5059400;28;20197;-34
2021/03/22 06:29:33;;;;;;;1999.90;999.90;;;;;;;;;;5059657;28;20195;-37
2021/03/22 06:32:22;;;;;;;1999.90;999.90;;;;;;;;;;5060029;28;20196;-39
2021/03/22 06:35:14;;;;;;;1999.90;999.90;;;;;;;;;;5059407;28;20488;-34
2021/03/22 06:38:01;;;;;;;1999.90;999.90;;;;;;;;;;5058590;28;20475;-38
2021/03/22 06:40:47;;;;;;;1999.90;999.90;;;;;;;;;;5059332;28;20243;-34
2021/03/22 06:43:50;;;;;;;1999.90;999.90;;;;;;;;;;5058099;28;20483;-37
2021/03/22 06:46:56;;;;;;;1999.90;999.90;;;;;;;;;;5057356;28;20493;-38
2021/03/22 06:49:50;;;;;;;1999.90;999.90;;;;;;;;;;5019237;28;20205;-34
2021/03/22 06:52:40;;;;;;;1999.90;999.90;;;;;;;;;;5018576;28;20250;-35
2021/03/22 06:55:29;;;;;;;1999.90;999.90;;;;;;;;;;5018828;28;20312;-35
2021/03/22 06:58:24;;;;;;;1999.90;999.90;;;;;;;;;;5018614;28;20213;-35
2021/03/22 07:01:14;;;;;;;1999.90;999.90;;;;;;;;;;5019034;28;20307;-37
2021/03/22 07:04:15;;;;;;;1999.90;999.90;;;;;;;;;;5018370;28;20209;-32
2021/03/22 07:07:15;;;;;;;1999.90;999.90;;;;;;;;;;5018977;28;20202;-36
2021/03/22 07:10:02;;;;;;;1999.90;999.90;;;;;;;;;;5018802;28;20300;-36
2021/03/22 07:13:06;;;;;;;1999.90;999.90;;;;;;;;;;5018521;28;20197;-34
2021/03/22 07:15:55;;;;;;;1999.90;999.90;;;;;;;;;;5018530;28;20198;-35
2021/03/22 07:18:42;;;;;;;1999.90;999.90;;;;;;;;;;5018431;28;20592;-33
2021/03/22 07:21:27;;;;;;;1999.90;999.90;;;;;;;;;;5018232;28;20705;-35
2021/03/22 07:24:16;;;;;;;1999.90;999.90;;;;;;;;;;5019328;28;20207;-35
2021/03/22 07:27:13;;;;;;;1999.90;999.90;;;;;;;;;;5018831;28;20302;-35
2021/03/22 07:30:10;;;;;;;1999.90;999.90;;;;;;;;;;5016309;28;20265;-35
2021/03/22 07:33:14;;;;;;;1999.90;999.90;;;;;;;;;;5017465;28;20217;-35
2021/03/22 07:36:05;;;;;;;1999.90;999.90;;;;;;;;;;5018048;28;20206;-35
2021/03/22 07:39:05;;;;;;;1999.90;999.90;;;;;;;;;;5017415;28;20617;-32
2021/03/22 07:42:15;;;;;;;1999.90;999.90;;;;;;;;;;5017123;28;20223;-34
2021/03/22 07:45:24;;;;;;;1999.90;999.90;;;;;;;;;;5017255;28;20561;-35
2021/03/22 07:48:22;;;;;;;1999.90;999.90;;;;;;;;;;5035058;28;20242;-35
2021/03/22 07:51:43;;;;;;;1999.90;999.90;;;;;;;;;;5056972;28;20230;-34
2021/03/22 07:54:34;;;;;;;1999.90;999.90;;;;;;;;;;5056797;28;20475;-37
2021/03/22 07:57:34;;;;;;;1999.90;999.90;;;;;;;;;;5055181;28;20213;-38
2021/03/22 08:00:23;;;;;;;1999.90;999.90;;;;;;;;;;5056966;28;20209;-37
2021/03/22 08:03:16;;;;;;;1999.90;999.90;;;;;;;;;;5056967;28;20353;-35
2021/03/22 08:06:33;;;;;;;1999.90;999.90;;;;;;;;;;5055648;28;20210;-35
2021/03/22 08:09:22;;;;;;;1999.90;999.90;;;;;;;;;;5055805;28;20200;-35
2021/03/22 08:12:15;;;;;;;1999.90;999.90;;;;;;;;;;5055083;28;20638;-37
2021/03/22 08:15:11;;;;;;;1999.90;999.90;;;;;;;;;;5056892;28;20201;-34
2021/03/22 08:18:01;;;;;;;1999.90;999.90;;;;;;;;;;5056439;28;20502;-37
2021/03/22 08:20:55;;;;;;;1999.90;999.90;;;;;;;;;;5056420;28;20259;-38
2021/03/22 08:23:47;;;;;;;1999.90;999.90;;;;;;;;;;5056535;28;20327;-35
2021/03/22 08:26:35;;;;;;;1999.90;999.90;;;;;;;;;;5056218;28;20214;-35
2021/03/22 08:29:25;;;;;;;1999.90;999.90;;;;;;;;;;5056626;28;20207;-36
2021/03/22 08:32:24;;;;;;;1999.90;999.90;;;;;;;;;;5056205;28;20507;-39
2021/03/22 08:35:18;;;;;;;1999.90;999.90;;;;;;;;;;5055650;28;20206;-35
2021/03/22 08:38:05;;;;;;;1999.90;999.90;;;;;;;;;;5056324;28;20208;-36
2021/03/22 08:40:53;;;;;;;1999.90;999.90;;;;;;;;;;5056000;28;20297;-36
2021/03/22 08:43:45;;;;;;;1999.90;999.90;;;;;;;;;;5055876;28;20200;-36
2021/03/22 08:46:34;;;;;;;1999.90;999.90;;;;;;;;;;5056256;28;20246;-38
2021/03/22 08:49:24;;;;;;;1999.90;999.90;;;;;;;;;;5056327;28;20562;-33
2021/03/22 08:52:18;;;;;;;1999.90;999.90;;;;;;;;;;5055993;28;20232;-37
2021/03/22 08:55:07;;;;;;;1999.90;999.90;;;;;;;;;;5056527;28;20204;-35
2021/03/22 08:58:01;;;;;;;1999.90;999.90;;;;;;;;;;5055642;28;20487;-35
2021/03/22 09:00:50;;;;;;;1999.90;999.90;;;;;;;;;;5056012;28;20450;-40
2021/03/22 09:03:40;;;;;;;1999.90;999.90;;;;;;;;;;5054935;28;20499;-35
2021/03/22 09:06:30;;;;;;;1999.90;999.90;;;;;;;;;;5055881;28;20212;-35
2021/03/22 09:09:23;;;;;;;1999.90;999.90;;;;;;;;;;5057427;28;20222;-38
2021/03/22 09:12:35;;;;;;;1999.90;999.90;;;;;;;;;;5040333;28;20325;-37
2021/03/22 09:15:34;;;;;;;1999.90;999.90;;;;;;;;;;5040499;28;20208;-36
2021/03/22 09:18:21;;;;;;;1999.90;999.90;;;;;;;;;;5040331;28;20467;-34
2021/03/22 09:21:24;;;;;;;1999.90;999.90;;;;;;;;;;5039857;28;20614;-36
2021/03/22 09:24:26;;;;;;;1999.90;999.90;;;;;;;;;;5040556;28;20479;-36
2021/03/22 09:27:30;;;;;;;1999.90;999.90;;;;;;;;;;5040840;28;20203;-32
2021/03/22 09:30:34;;;;;;;1999.90;999.90;;;;;;;;;;5039759;28;20208;-36
2021/03/22 09:33:47;;;;;;;1999.90;999.90;;;;;;;;;;5040663;28;20302;-36
2021/03/22 09:36:35;;;;;;;1999.90;999.90;;;;;;;;;;5040308;28;20202;-37
2021/03/22 09:39:40;;;;;;;1999.90;999.90;;;;;;;;;;5039446;28;20208;-39
2021/03/22 09:42:27;;;;;;;1999.90;999.90;;;;;;;;;;5039623;28;20215;-35
2021/03/22 09:45:19;;;;;;;1999.90;999.90;;;;;;;;;;5040019;28;20202;-41
2021/03/22 09:48:20;;;;;;;1999.90;999.90;;;;;;;;;;5040215;28;20292;-35
2021/03/22 09:51:23;;;;;;;1999.90;999.90;;;;;;;;;;5039678;28;20270;-34
2021/03/22 09:54:18;;;;;;;1999.90;999.90;;;;;;;;;;5039505;28;20308;-34
2021/03/22 09:57:14;;;;;;;1999.90;999.90;;;;;;;;;;5039694;28;20484;-36
2021/03/22 10:00:15;;;;;;;1999.90;999.90;;;;;;;;;;5039686;28;20227;-36
2021/03/22 10:03:25;;;;;;;1999.90;999.90;;;;;;;;;;5014757;28;20209;-37
2021/03/22 10:06:52;;;;;;;1999.90;999.90;;;;;;;;;;5039369;28;20260;-35
2021/03/22 10:09:56;;;;;;;1999.90;999.90;;;;;;;;;;4978080;28;20290;-33
2021/03/22 10:12:57;;;;;;;1999.90;999.90;;;;;;;;;;4977391;28;20199;-36
2021/03/22 10:15:48;;;;;;;1999.90;999.90;;;;;;;;;;5039299;28;20608;-33
2021/03/22 10:18:39;;;;;;;1999.90;999.90;;;;;;;;;;5039132;28;20600;-34
2021/03/22 10:21:30;;;;;;;1999.90;999.90;;;;;;;;;;5037693;28;20270;-32
2021/03/22 10:24:34;;;;;;;1999.90;999.90;;;;;;;;;;5038343;28;20208;-34
2021/03/22 10:27:24;;;;;;;1999.90;999.90;;;;;;;;;;5038931;28;20331;-33
2021/03/22 10:30:18;;;;;;;1999.90;999.90;;;;;;;;;;5039038;28;20205;-36
2021/03/22 10:33:15;;;;;;;1999.90;999.90;;;;;;;;;;5037894;28;20213;-36
2021/03/22 10:36:07;;;;;;;1999.90;999.90;;;;;;;;;;5039047;28;20348;-38
2021/03/22 10:38:58;;;;;;;1999.90;999.90;;;;;;;;;;5038062;28;20201;-35
2021/03/22 10:41:44;;;;;;;1999.90;999.90;;;;;;;;;;5037875;28;20480;-36
2021/03/22 10:44:32;;;;;;;1999.90;999.90;;;;;;;;;;5038486;28;20202;-36
2021/03/22 10:47:20;;;;;;;1999.90;999.90;;;;;;;;;;5039085;28;20199;-33
2021/03/22 10:50:11;;;;;;;1999.90;999.90;;;;;;;;;;5047880;28;20841;-36
2021/03/22 10:53:06;;;;;;;1999.90;999.90;;;;;;;;;;5058541;28;20236;-33
2021/03/22 10:55:52;;;;;;;1999.90;999.90;;;;;;;;;;5058238;28;20196;-36
2021/03/22 10:58:40;;;;;;;1999.90;999.90;;;;;;;;;;5058401;28;20196;-35
2021/03/22 11:01:33;;;;;;;1999.90;999.90;;;;;;;;;;5057704;28;20298;-35
2021/03/22 11:04:21;;;;;;;1999.90;999.90;;;;;;;;;;5057817;28;20473;-32
2021/03/22 11:07:11;;;;;;;1999.90;999.90;;;;;;;;;;5058053;28;20212;-32
2021/03/22 11:09:59;;;;;;;1999.90;999.90;;;;;;;;;;5058252;28;20491;-36
2021/03/22 11:12:48;;;;;;;1999.90;999.90;;;;;;;;;;5057551;28;20398;-33
2021/03/22 11:15:35;;;;;;;1999.90;999.90;;;;;;;;;;5057971;28;20200;-33
2021/03/22 11:18:22;;;;;;;1999.90;999.90;;;;;;;;;;5057594;28;20495;-34
2021/03/22 11:21:11;;;;;;;1999.90;999.90;;;;;;;;;;5057446;28;20650;-37
2021/03/22 11:24:12;;;;;;;1999.90;999.90;;;;;;;;;;5057730;28;20291;-35
2021/03/22 11:27:07;;;;;;;1999.90;999.90;;;;;;;;;;5058097;28;20205;-32
2021/03/22 11:30:02;;;;;;;1999.90;999.90;;;;;;;;;;5056395;28;20223;-36
2021/03/22 11:32:48;;;;;;;1999.90;999.90;;;;;;;;;;5056514;28;20322;-34
2021/03/22 11:35:38;;;;;;;1999.90;999.90;;;;;;;;;;5057235;28;20192;-36
2021/03/22 11:38:24;;;;;;;1999.90;999.90;;;;;;;;;;5057438;28;20656;-34
2021/03/22 11:41:32;;;;;;;1999.90;999.90;;;;;;;;;;5057343;28;20193;-34
2021/03/22 11:44:36;;;;;;;1999.90;999.90;;;;;;;;;;5057709;28;20671;-39
2021/03/22 11:47:37;;;;;;;1999.90;999.90;;;;;;;;;;5057643;28;20204;-35
2021/03/22 11:50:43;;;;;;;1999.90;999.90;;;;;;;;;;5056333;28;20587;-33
2021/03/22 11:53:58;;;;;;;1999.90;999.90;;;;;;;;;;5055912;28;20197;-36
2021/03/22 11:56:55;;;;;;;1999.90;999.90;;;;;;;;;;5057216;28;20204;-34
2021/03/22 11:59:47;;;;;;;1999.90;999.90;;;;;;;;;;5057604;28;20605;-37
2021/03/22 12:03:08;;;;;;;1999.90;999.90;;;;;;;;;;5057364;28;20200;-32
2021/03/22 12:06:09;;;;;;;1999.90;999.90;;;;;;;;;;5037216;28;20877;-37
2021/03/22 12:09:15;;;;;;;1999.90;999.90;;;;;;;;;;5037559;28;20291;-36
2021/03/22 12:12:14;;;;;;;1999.90;999.90;;;;;;;;;;5037176;28;20252;-38
2021/03/22 12:15:06;;;;;;;1999.90;999.90;;;;;;;;;;5036748;28;20248;-36
2021/03/22 12:18:00;;;;;;;1999.90;999.90;;;;;;;;;;5035495;28;20252;-35
2021/03/22 12:20:46;;;;;;;1999.90;999.90;;;;;;;;;;5036381;28;20264;-34
2021/03/22 12:23:32;;;;;;;1999.90;999.90;;;;;;;;;;5037245;28;20339;-37
2021/03/22 12:26:19;;;;;;;1999.90;999.90;;;;;;;;;;5036552;28;20364;-33
2021/03/22 12:29:07;;;;;;;1999.90;999.90;;;;;;;;;;5036489;28;20201;-34
2021/03/22 12:31:54;;;;;;;1999.90;999.90;;;;;;;;;;5036577;28;20376;-36
2021/03/22 12:34:42;;;;;;;1999.90;999.90;;;;;;;;;;5036170;28;20209;-34
2021/03/22 12:37:30;;;;;;;1999.90;999.90;;;;;;;;;;5036422;28;20205;-37
2021/03/22 12:40:18;;;;;;;1999.90;999.90;;;;;;;;;;5036108;28;20259;-38
2021/03/22 12:43:04;;;;;;;1999.90;999.90;;;;;;;;;;5036867;28;20287;-33
2021/03/22 12:45:53;;;;;;;1999.90;999.90;;;;;;;;;;5036597;28;20476;-35
2021/03/22 12:48:45;;;;;;;1999.90;999.90;;;;;;;;;;5036344;28;20246;-34
2021/03/22 12:51:33;;;;;;;1999.90;999.90;;;;;;;;;;5035529;28;20452;-35
2021/03/22 12:54:19;;;;;;;1999.90;999.90;;;;;;;;;;5036616;28;20346;-32
2021/03/22 12:57:14;;;;;;;1999.90;999.90;;;;;;;;;;5035853;28;20210;-33
2021/03/22 13:00:00;;;;;;;1999.90;999.90;;;;;;;;;;5035360;28;20201;-35
2021/03/22 13:02:49;;;;;;;1999.90;999.90;;;;;;;;;;5036266;28;20217;-32
2021/03/22 13:05:36;;;;;;;1999.90;999.90;;;;;;;;;;5036049;28;20469;-35
2021/03/22 13:08:23;;;;;;;1999.90;999.90;;;;;;;;;;5035783;28;20284;-31
2021/03/22 13:11:10;;;;;;;1999.90;999.90;;;;;;;;;;5035535;28;20222;-34
2021/03/22 13:13:58;;;;;;;1999.90;999.90;;;;;;;;;;5036138;28;20196;-34
2021/03/22 13:16:49;;;;;;;1999.90;999.90;;;;;;;;;;5035833;28;20534;-36
2021/03/22 13:19:35;;;;;;;1999.90;999.90;;;;;;;;;;5035822;28;20200;-34
2021/03/22 13:22:24;;;;;;;1999.90;999.90;;;;;;;;;;5035987;28;20484;-33
2021/03/22 13:25:21;;;;;;;1999.90;999.90;;;;;;;;;;5035502;28;20339;-36
2021/03/22 13:28:11;;;;;;;1999.90;999.90;;;;;;;;;;5035528;28;20200;-33
2021/03/22 13:30:58;;;;;;;1999.90;999.90;;;;;;;;;;5035664;28;20202;-33
2021/03/22 13:33:47;;;;;;;1999.90;999.90;;;;;;;;;;5035476;28;20198;-37
2021/03/22 13:36:33;;;;;;;1999.90;999.90;;;;;;;;;;5035757;28;20269;-38
2021/03/22 13:39:19;;;;;;;1999.90;999.90;;;;;;;;;;5036797;28;20261;-34
2021/03/22 13:42:05;;;;;;;1999.90;999.90;;;;;;;;;;5036492;28;20198;-34
2021/03/22 13:44:54;;;;;;;1999.90;999.90;;;;;;;;;;5035441;28;20207;-36
2021/03/22 13:47:39;;;;;;;1999.90;999.90;;;;;;;;;;5035783;28;20271;-35
2021/03/22 13:50:26;;;;;;;1999.90;999.90;;;;;;;;;;5036371;28;20200;-33
2021/03/22 13:53:13;;;;;;;1999.90;999.90;;;;;;;;;;5035575;28;20259;-32
2021/03/22 13:56:05;;;;;;;1999.90;999.90;;;;;;;;;;5037631;28;20201;-34
2021/03/22 13:58:54;;;;;;;1999.90;999.90;;;;;;;;;;5048442;28;20213;-36
2021/03/22 14:01:40;;;;;;;1999.90;999.90;;;;;;;;;;5059083;28;20197;-32
2021/03/22 14:04:27;;;;;;;1999.90;999.90;;;;;;;;;;5059363;28;20205;-32
2021/03/22 14:07:17;;;;;;;1999.90;999.90;;;;;;;;;;5059492;28;20343;-37
2021/03/22 14:10:03;;;;;;;1999.90;999.90;;;;;;;;;;5060102;28;20327;-37
2021/03/22 14:12:54;;;;;;;1999.90;999.90;;;;;;;;;;5058298;28;20224;-34
2021/03/22 14:15:40;;;;;;;1999.90;999.90;;;;;;;;;;5051380;28;20297;-36
2021/03/22 14:18:27;;;;;;;1999.90;999.90;;;;;;;;;;5039341;28;20202;-36
2021/03/22 14:21:14;;;;;;;1999.90;999.90;;;;;;;;;;5039255;28;20292;-36
2021/03/22 14:24:01;;;;;;;1999.90;999.90;;;;;;;;;;5039080;28;20221;-32
2021/03/22 14:26:47;;;;;;;1999.90;999.90;;;;;;;;;;5038973;28;20201;-33
2021/03/22 14:29:36;;;;;;;1999.90;999.90;;;;;;;;;;5038847;28;20365;-33
2021/03/22 14:32:22;;;;;;;1999.90;999.90;;;;;;;;;;5038860;28;20224;-35
2021/03/22 14:35:11;;;;;;;1999.90;999.90;;;;;;;;;;5039215;28;20201;-33
2021/03/22 14:37:58;;;;;;;1999.90;999.90;;;;;;;;;;5038890;28;20204;-35
2021/03/22 14:40:44;;;;;;;1999.90;999.90;;;;;;;;;;5038534;28;20209;-36
2021/03/22 14:43:30;;;;;;;1999.90;999.90;;;;;;;;;;5037913;28;20197;-31
2021/03/22 14:46:19;;;;;;;1999.90;999.90;;;;;;;;;;5042161;28;20205;-33
2021/03/22 14:49:05;;;;;;;1999.90;999.90;;;;;;;;;;5040831;28;20244;-34
2021/03/22 14:51:53;;;;;;;1999.90;999.90;;;;;;;;;;5038605;28;20229;-36
2021/03/22 14:54:39;;;;;;;1999.90;999.90;;;;;;;;;;5037942;28;20201;-35
2021/03/22 14:57:24;;;;;;;1999.90;999.90;;;;;;;;;;5038799;28;20225;-35
2021/03/22 15:00:19;;;;;;;1999.90;999.90;;;;;;;;;;5038593;28;20205;-33
2021/03/22 15:03:08;;;;;;;1999.90;999.90;;;;;;;;;;5038025;28;20599;-33
2021/03/22 15:05:56;;;;;;;1999.90;999.90;;;;;;;;;;5037941;28;20603;-33
2021/03/22 15:08:42;;;;;;;1999.90;999.90;;;;;;;;;;5037739;28;20552;-35
2021/03/22 15:11:29;;;;;;;1999.90;999.90;;;;;;;;;;5038128;28;20220;-32
2021/03/22 15:14:15;;;;;;;1999.90;999.90;;;;;;;;;;5038079;28;20198;-36
2021/03/22 15:17:00;;;;;;;1999.90;999.90;;;;;;;;;;5038142;28;20205;-35
2021/03/22 15:19:49;;;;;;;1999.90;999.90;;;;;;;;;;5037452;28;20205;-36
2021/03/22 15:22:35;;;;;;;1999.90;999.90;;;;;;;;;;5038103;28;20217;-34
2021/03/22 15:25:22;;;;;;;1999.90;999.90;;;;;;;;;;5038008;28;20224;-34
2021/03/22 15:28:16;;;;;;;1999.90;999.90;;;;;;;;;;5055532;28;20204;-39
2021/03/22 15:31:03;;;;;;;1999.90;999.90;;;;;;;;;;5077337;28;20491;-34
2021/03/22 15:33:52;;;;;;;1999.90;999.90;;;;;;;;;;5077033;28;20226;-38
2021/03/22 15:36:42;;;;;;;1999.90;999.90;;;;;;;;;;5076231;28;20267;-34
2021/03/22 15:39:28;;;;;;;1999.90;999.90;;;;;;;;;;5077019;28;20472;-37
2021/03/22 15:42:14;;;;;;;1999.90;999.90;;;;;;;;;;5077235;28;20732;-39
2021/03/22 15:45:00;;;;;;;1999.90;999.90;;;;;;;;;;5077465;28;20199;-36
2021/03/22 15:47:46;;;;;;;1999.90;999.90;;;;;;;;;;5077077;28;20351;-32
2021/03/22 15:50:32;;;;;;;1999.90;999.90;;;;;;;;;;5077007;28;20195;-32
2021/03/22 15:53:22;;;;;;;1999.90;999.90;;;;;;;;;;5077246;28;20223;-34